»·PEaware :: N4436E EDFE-EDDH

N4436E :: EDFE-EDDH

FLIGHT INFORMATION

Flight Status: Arrived
Operator: Privately registered:
United States
More flights under this callsign
Pilot: Friedhelm S. (2894)
Aircraft: CESSNA 172 SKYHAWK
(C172)
More flights by this aircraft type
Origin: EDFE Egelsbach
Germany
Destination: EDDH Hamburg
Germany
More flights between these airports :: More routes between these airports
Route:
File this flight plan on PilotEdge
Remarks:
Altitude:
(Current/Filed)
9,500ft
Speed:
(Current/Filed)
100kts
Departed: 15-Nov-18 04:25 AM
Arrived: 15-Nov-18 06:44 AM
Distance/Time
Traveled:
225nm/2:19
Distance/Time
To Go:
Arrived

Flight Plot

Page will automatically refresh every two minutes.

Flight plan parsing failed; only flown route is shown


Map Options




Map Legend


Flown Route
Filed Route
Departure Airport
Arrival Airport
Navaid (VOR, NDB)
Fix

Horizontal Profiles

Position Reports

Time Latitude Longitude Heading Altitude Ground
Speed
15-Nov-18 04:18 49.962137 8.641592 267 379ft 0kts
15-Nov-18 04:19 49.962137 8.641592 267 379ft 0kts
15-Nov-18 04:20 49.962137 8.641592 267 379ft 0kts
15-Nov-18 04:21 49.962137 8.641592 267 379ft 0kts
15-Nov-18 04:22 49.962137 8.641592 267 379ft 0kts
15-Nov-18 04:23 49.962137 8.641592 266 379ft 0kts
15-Nov-18 04:24 49.961664 8.642100 96 378ft 11kts
15-Nov-18 04:25 49.961901 8.647518 86 383ft 9kts
15-Nov-18 04:26 49.961652 8.650341 123 385ft 2kts
15-Nov-18 04:27 49.961335 8.650863 190 386ft 8kts
15-Nov-18 04:28 49.959844 8.635211 250 744ft 77kts
15-Nov-18 04:29 49.971813 8.617723 49 1506ft 104kts
15-Nov-18 04:30 49.974516 8.663497 94 1496ft 116kts
15-Nov-18 04:31 49.978300 8.712960 78 1437ft 112kts
15-Nov-18 04:32 49.986598 8.758488 71 1478ft 110kts
15-Nov-18 04:33 50.000284 8.800704 52 1497ft 110kts
15-Nov-18 04:34 50.029342 8.811514 4 1520ft 110kts
15-Nov-18 04:35 50.059876 8.816097 8 1516ft 111kts
15-Nov-18 04:36 50.090500 8.823328 8 1496ft 112kts
15-Nov-18 04:37 50.118803 8.829658 7 1489ft 111kts
15-Nov-18 04:38 50.149207 8.834648 9 1498ft 110kts
15-Nov-18 04:39 50.179794 8.841045 5 1502ft 110kts
15-Nov-18 04:40 50.210371 8.845698 4 1513ft 110kts
15-Nov-18 04:41 50.235650 8.850600 9 1630ft 105kts
15-Nov-18 04:42 50.267149 8.860717 10 2836ft 97kts
15-Nov-18 04:43 50.289363 8.866355 358 3525ft 107kts
15-Nov-18 04:44 50.325521 8.861912 354 3514ft 111kts
15-Nov-18 04:45 50.351764 8.859613 0 3524ft 113kts
15-Nov-18 04:46 50.388723 8.856962 357 3526ft 114kts
15-Nov-18 04:47 50.415299 8.854852 356 3526ft 114kts
15-Nov-18 04:48 50.452274 8.851915 357 3526ft 114kts
15-Nov-18 04:49 50.478756 8.849797 357 3526ft 114kts
15-Nov-18 04:50 50.510379 8.853955 9 3526ft 114kts
15-Nov-18 04:51 50.541818 8.861712 8 3526ft 114kts
15-Nov-18 04:52 50.573281 8.869480 8 3526ft 114kts
15-Nov-18 04:53 50.604731 8.877222 8 3526ft 114kts
15-Nov-18 04:54 50.636141 8.884978 8 3526ft 114kts
15-Nov-18 04:55 50.667605 8.892765 8 3526ft 114kts
15-Nov-18 04:56 50.699040 8.900561 8 3526ft 114kts
15-Nov-18 04:57 50.730524 8.908364 9 3526ft 114kts
15-Nov-18 04:58 50.762030 8.916173 9 3526ft 114kts
15-Nov-18 04:59 50.793459 8.923990 9 3526ft 114kts
15-Nov-18 05:00 50.824857 8.931937 9 3526ft 114kts
15-Nov-18 05:01 50.856301 8.940090 9 3526ft 114kts
15-Nov-18 05:02 50.887781 8.948374 9 3526ft 114kts
15-Nov-18 05:03 50.919298 8.956596 9 3526ft 115kts
15-Nov-18 05:04 50.950764 8.964860 9 3526ft 114kts
15-Nov-18 05:05 50.982229 8.973073 9 3526ft 114kts
15-Nov-18 05:06 51.013627 8.981364 9 3526ft 114kts
15-Nov-18 05:07 51.045079 8.989585 9 3526ft 114kts
15-Nov-18 05:08 51.076516 8.997813 9 3526ft 114kts
15-Nov-18 05:09 51.107286 9.005856 8 3525ft 114kts
15-Nov-18 05:10 51.138240 9.014059 9 3525ft 114kts
15-Nov-18 05:11 51.169637 9.022284 9 3525ft 114kts
15-Nov-18 05:12 51.201084 9.030548 9 3525ft 114kts
15-Nov-18 05:13 51.232582 9.038844 9 3525ft 114kts
15-Nov-18 05:14 51.263955 9.047083 8 3525ft 114kts
15-Nov-18 05:15 51.295373 9.055370 9 3525ft 114kts
15-Nov-18 05:16 51.326737 9.063617 9 3525ft 114kts
15-Nov-18 05:17 51.358241 9.071957 9 3525ft 114kts
15-Nov-18 05:18 51.389604 9.080239 9 3525ft 114kts
15-Nov-18 05:19 51.421030 9.088524 9 3525ft 114kts
15-Nov-18 05:20 51.452413 9.096819 9 3525ft 114kts
15-Nov-18 05:21 51.483827 9.105114 8 3525ft 114kts
15-Nov-18 05:22 51.514829 9.107282 321 3516ft 115kts
15-Nov-18 05:23 51.538932 9.088191 21 3493ft 115kts
15-Nov-18 05:24 51.568335 9.108084 23 3493ft 114kts
15-Nov-18 05:25 51.597531 9.128977 24 3493ft 114kts
15-Nov-18 05:26 51.628362 9.141276 10 3492ft 114kts
15-Nov-18 05:27 51.659773 9.150318 9 3492ft 114kts
15-Nov-18 05:28 51.691209 9.158366 8 3492ft 114kts
15-Nov-18 05:29 51.722714 9.166437 8 3492ft 114kts
15-Nov-18 05:30 51.754136 9.174476 8 3492ft 114kts
15-Nov-18 05:31 51.785632 9.182554 8 3492ft 114kts
15-Nov-18 05:32 51.817080 9.190614 8 3492ft 114kts
15-Nov-18 05:33 51.848684 9.198152 7 3492ft 114kts
15-Nov-18 05:34 51.880184 9.205348 8 3492ft 114kts
15-Nov-18 05:35 51.911720 9.212563 7 3492ft 114kts
15-Nov-18 05:36 51.943312 9.219788 7 3492ft 114kts
15-Nov-18 05:37 51.974844 9.227005 7 3492ft 114kts
15-Nov-18 05:38 52.006432 9.234248 7 3492ft 114kts
15-Nov-18 05:39 52.038061 9.241534 7 3492ft 114kts
15-Nov-18 05:40 52.069608 9.248785 7 3492ft 114kts
15-Nov-18 05:41 52.100996 9.255981 7 3492ft 114kts
15-Nov-18 05:42 52.131079 9.262933 7 3492ft 114kts
15-Nov-18 05:43 52.162348 9.270139 7 3492ft 114kts
15-Nov-18 05:44 52.193971 9.277440 7 3492ft 114kts
15-Nov-18 05:45 52.225478 9.284706 7 3492ft 114kts
15-Nov-18 05:46 52.257050 9.292014 7 3492ft 114kts
15-Nov-18 05:47 52.288607 9.299332 7 3492ft 114kts
15-Nov-18 05:48 52.320227 9.306321 7 3492ft 114kts
15-Nov-18 05:49 52.351788 9.313071 6 3492ft 114kts
15-Nov-18 05:50 52.383420 9.319882 7 3492ft 114kts
15-Nov-18 05:51 52.415060 9.326629 7 3492ft 115kts
15-Nov-18 05:52 52.446611 9.333427 7 3492ft 115kts
15-Nov-18 05:53 52.478290 9.340216 6 3492ft 114kts
15-Nov-18 05:54 52.510010 9.347047 7 3492ft 115kts
15-Nov-18 05:55 52.541639 9.353851 6 3492ft 115kts
15-Nov-18 05:56 52.573346 9.360669 7 3492ft 115kts
15-Nov-18 05:57 52.605046 9.367504 7 3492ft 115kts
15-Nov-18 05:58 52.635604 9.381318 24 3491ft 115kts
15-Nov-18 05:59 52.664513 9.403642 24 3491ft 115kts
15-Nov-18 06:00 52.693546 9.426099 24 3491ft 115kts
15-Nov-18 06:01 52.722457 9.448469 24 3491ft 115kts
15-Nov-18 06:02 52.751451 9.470937 24 3491ft 115kts
15-Nov-18 06:03 52.780385 9.493372 24 3491ft 115kts
15-Nov-18 06:04 52.809303 9.515790 24 3491ft 115kts
15-Nov-18 06:05 52.838153 9.538203 24 3491ft 115kts
15-Nov-18 06:06 52.867108 9.560751 24 3491ft 115kts
15-Nov-18 06:07 52.896043 9.583290 24 3491ft 115kts
15-Nov-18 06:08 52.924939 9.605809 24 3491ft 115kts
15-Nov-18 06:09 52.953955 9.628448 24 3491ft 115kts
15-Nov-18 06:10 52.982855 9.650997 25 3491ft 115kts
15-Nov-18 06:11 52.998093 9.662914 25 3491ft 114kts
15-Nov-18 06:12 53.026049 9.682258 24 3494ft 116kts
15-Nov-18 06:13 53.055925 9.703163 25 3498ft 116kts
15-Nov-18 06:14 53.085578 9.724797 25 3502ft 117kts
15-Nov-18 06:15 53.115270 9.746641 25 3503ft 117kts
15-Nov-18 06:16 53.145130 9.768832 25 3501ft 117kts
15-Nov-18 06:17 53.174963 9.790955 25 3500ft 117kts
15-Nov-18 06:18 53.204777 9.812963 25 3498ft 116kts
15-Nov-18 06:19 53.234404 9.834803 25 3497ft 116kts
15-Nov-18 06:20 53.264059 9.856467 27 3444ft 120kts
15-Nov-18 06:21 53.287066 9.894747 71 3155ft 122kts
15-Nov-18 06:22 53.305966 9.936766 27 3063ft 116kts
15-Nov-18 06:23 53.335941 9.955616 19 3060ft 118kts
15-Nov-18 06:24 53.365209 9.978878 37 3166ft 108kts
15-Nov-18 06:25 53.385837 10.013456 48 4000ft 108kts
15-Nov-18 06:26 53.406423 10.052250 53 4009ft 110kts
15-Nov-18 06:27 53.430293 10.063717 314 3980ft 121kts
15-Nov-18 06:28 53.456677 10.031795 310 4058ft 118kts
15-Nov-18 06:29 53.479266 9.991027 314 4049ft 121kts
15-Nov-18 06:30 53.481889 9.945912 221 3986ft 115kts
15-Nov-18 06:31 53.460870 9.905304 225 4034ft 113kts
15-Nov-18 06:32 53.439278 9.865898 232 4045ft 114kts
15-Nov-18 06:33 53.421062 9.824584 284 3811ft 121kts
15-Nov-18 06:34 53.441193 9.782918 311 3203ft 106kts
15-Nov-18 06:35 53.459844 9.749075 314 2928ft 89kts
15-Nov-18 06:36 53.477310 9.718810 313 2980ft 89kts
15-Nov-18 06:37 53.495245 9.723434 45 2968ft 85kts
15-Nov-18 06:38 53.511885 9.750636 48 2965ft 82kts
15-Nov-18 06:39 53.527038 9.779584 49 2904ft 82kts
15-Nov-18 06:40 53.541176 9.809317 55 2714ft 80kts
15-Nov-18 06:41 53.555605 9.837506 53 2196ft 80kts
15-Nov-18 06:42 53.568437 9.862460 55 1795ft 65kts
15-Nov-18 06:43 53.580270 9.886839 54 1376ft 66kts
15-Nov-18 06:44 53.592327 9.910842 52 929ft 66kts
15-Nov-18 06:45 53.603783 9.933923 52 670ft 56kts
15-Nov-18 06:46 53.614009 9.954983 54 286ft 62kts
15-Nov-18 06:47 53.622330 9.971896 52 24ft 20kts
15-Nov-18 06:48 53.622056 9.976369 51 26ft 7kts
15-Nov-18 06:49 53.624310 9.980896 48 30ft 9kts
15-Nov-18 06:50 53.624991 9.985333 81 34ft 11kts
15-Nov-18 06:51 53.625560 9.990334 78 39ft 12kts
15-Nov-18 06:52 53.626106 9.989123 261 36ft 7kts
15-Nov-18 06:53 53.626048 9.988904 242 36ft 0kts
15-Nov-18 06:54 53.626048 9.988904 242 36ft 0kts
15-Nov-18 06:55 53.626048 9.988904 242 36ft 0kts
15-Nov-18 06:56 53.626048 9.988904 242 36ft 0kts
15-Nov-18 06:57 53.626048 9.988904 242 36ft 0kts
15-Nov-18 06:58 53.626048 9.988904 242 36ft 0kts
15-Nov-18 06:59 53.626048 9.988904 242 36ft 0kts
15-Nov-18 07:00 53.626048 9.988904 242 36ft 0kts
15-Nov-18 07:01 53.626048 9.988904 242 36ft 0kts

Navigation Log

Ident Type
Flight plan parsing failed, navigation log unavailable